Time,TemperatureF,DewpointF,PressureIn,WindDirection,WindDirectionDegrees,WindSpeedMPH,WindSpeedGustMPH,Humidity,HourlyPrecipIn,Conditions,Clouds,dailyrainin,SoftwareType,DateUTC
2013-07-14 00:00:00,74.7,72.5,30.24,ENE,58,0.0,0.0,93,0.00,,,0.05,Wunderground v.1.13,2013-07-14 04:00:00,
2013-07-14 00:05:00,74.7,72.5,30.24,ENE,58,0.0,0.0,93,0.00,,,0.00,Wunderground v.1.13,2013-07-14 04:05:00,
2013-07-14 00:10:00,74.7,72.5,30.24,ENE,58,0.0,0.0,93,0.00,,,0.00,Wunderground v.1.13,2013-07-14 04:10:00,
2013-07-14 00:15:00,74.6,72.4,30.23,ENE,58,0.0,0.0,93,0.00,,,0.00,Wunderground v.1.13,2013-07-14 04:15:00,
2013-07-14 00:20:00,74.6,72.4,30.23,ENE,58,0.0,0.0,93,0.00,,,0.00,Wunderground v.1.13,2013-07-14 04:20:00,
2013-07-14 00:30:00,74.4,72.2,30.23,ENE,58,0.0,0.0,93,0.00,,,0.00,Wunderground v.1.13,2013-07-14 04:30:00,
2013-07-14 00:35:00,74.2,72.0,30.23,ENE,58,0.0,0.0,93,0.00,,,0.00,Wunderground v.1.13,2013-07-14 04:35:00,
2013-07-14 00:40:00,74.0,71.8,30.23,ENE,58,0.0,0.0,93,0.00,,,0.00,Wunderground v.1.13,2013-07-14 04:40:00,
2013-07-14 00:45:00,74.0,71.8,30.24,ENE,58,0.0,0.0,93,0.00,,,0.00,Wunderground v.1.13,2013-07-14 04:45:00,
2013-07-14 00:50:00,73.9,71.7,30.24,ENE,58,0.0,0.0,93,0.00,,,0.00,Wunderground v.1.13,2013-07-14 04:50:00,
2013-07-14 00:55:00,73.9,72.1,30.24,ENE,58,0.0,0.0,94,0.00,,,0.00,Wunderground v.1.13,2013-07-14 04:55:00,
2013-07-14 01:00:00,73.9,72.1,30.25,ENE,58,0.0,0.0,94,0.00,,,0.00,Wunderground v.1.13,2013-07-14 05:00:00,
2013-07-14 01:10:00,74.0,72.2,30.25,ENE,58,0.0,0.0,94,0.00,,,0.00,Wunderground v.1.13,2013-07-14 05:10:00,
2013-07-14 01:15:00,74.0,72.2,30.25,ENE,58,0.0,0.0,94,0.00,,,0.00,Wunderground v.1.13,2013-07-14 05:15:00,
2013-07-14 01:20:00,74.0,72.2,30.25,ENE,58,0.0,0.0,94,0.00,,,0.00,Wunderground v.1.13,2013-07-14 05:20:00,
2013-07-14 01:30:00,74.0,72.2,30.25,ENE,58,0.0,0.0,94,0.00,,,0.00,Wunderground v.1.13,2013-07-14 05:30:00,
2013-07-14 01:35:00,74.0,72.2,30.25,ENE,58,0.0,0.0,94,0.00,,,0.00,Wunderground v.1.13,2013-07-14 05:35:00,
2013-07-14 01:40:00,74.0,72.2,30.25,ENE,58,0.0,0.0,94,0.00,,,0.00,Wunderground v.1.13,2013-07-14 05:40:00,
2013-07-14 01:50:00,74.0,72.2,30.25,ENE,58,0.0,0.0,94,0.00,,,0.00,Wunderground v.1.13,2013-07-14 05:50:00,
2013-07-14 01:55:00,74.0,72.2,30.25,ENE,58,0.0,0.0,94,0.00,,,0.00,Wunderground v.1.13,2013-07-14 05:55:00,
2013-07-14 02:00:00,74.0,72.2,30.25,ENE,58,0.0,0.0,94,0.00,,,0.00,Wunderground v.1.13,2013-07-14 06:00:00,
2013-07-14 02:05:00,74.0,72.2,30.25,ENE,58,0.0,0.0,94,0.00,,,0.00,Wunderground v.1.13,2013-07-14 06:05:00,
2013-07-14 02:15:00,74.0,72.2,30.25,ENE,58,0.0,0.0,94,0.00,,,0.00,Wunderground v.1.13,2013-07-14 06:15:00,
2013-07-14 02:20:00,74.0,72.2,30.25,ENE,58,0.0,0.0,94,0.00,,,0.00,Wunderground v.1.13,2013-07-14 06:20:00,
2013-07-14 02:30:00,74.0,72.2,30.25,ENE,58,0.0,0.0,94,0.00,,,0.00,Wunderground v.1.13,2013-07-14 06:30:00,
2013-07-14 02:35:00,74.0,72.2,30.25,ENE,58,0.0,0.0,94,0.00,,,0.00,Wunderground v.1.13,2013-07-14 06:35:00,
2013-07-14 02:40:00,74.2,72.4,30.25,ENE,58,0.0,0.0,94,0.00,,,0.00,Wunderground v.1.13,2013-07-14 06:40:00,
2013-07-14 02:45:00,74.2,72.4,30.25,ENE,58,0.0,0.0,94,0.00,,,0.00,Wunderground v.1.13,2013-07-14 06:45:00,
2013-07-14 02:55:00,74.2,72.4,30.25,ENE,58,0.0,0.0,94,0.00,,,0.00,Wunderground v.1.13,2013-07-14 06:55:00,
2013-07-14 03:00:00,74.2,72.4,30.25,ENE,58,0.0,0.0,94,0.00,,,0.00,Wunderground v.1.13,2013-07-14 07:00:00,
2013-07-14 03:10:00,74.2,72.4,30.25,ENE,58,0.0,0.0,94,0.00,,,0.00,Wunderground v.1.13,2013-07-14 07:10:00,
2013-07-14 03:15:00,74.0,72.2,30.25,ENE,58,0.0,0.0,94,0.00,,,0.00,Wunderground v.1.13,2013-07-14 07:15:00,
2013-07-14 03:20:00,74.0,72.2,30.25,ENE,58,0.0,0.0,94,0.00,,,0.00,Wunderground v.1.13,2013-07-14 07:20:00,
2013-07-14 03:25:00,74.0,72.2,30.25,ENE,58,0.0,0.0,94,0.00,,,0.00,Wunderground v.1.13,2013-07-14 07:25:00,
2013-07-14 03:35:00,74.0,72.2,30.25,ENE,58,0.0,0.0,94,0.00,,,0.00,Wunderground v.1.13,2013-07-14 07:35:00,
2013-07-14 03:40:00,73.9,72.1,30.25,ENE,58,0.0,0.0,94,0.00,,,0.00,Wunderground v.1.13,2013-07-14 07:40:00,
2013-07-14 03:45:00,73.9,72.1,30.25,ENE,58,0.0,0.0,94,0.00,,,0.00,Wunderground v.1.13,2013-07-14 07:45:00,
2013-07-14 03:55:00,73.9,72.1,30.25,ENE,58,0.0,0.0,94,0.00,,,0.00,Wunderground v.1.13,2013-07-14 07:55:00,
2013-07-14 04:00:00,73.9,72.1,30.25,ENE,58,0.0,0.0,94,0.00,,,0.00,Wunderground v.1.13,2013-07-14 08:00:00,
2013-07-14 04:10:00,74.0,72.2,30.25,ENE,58,0.0,0.0,94,0.00,,,0.00,Wunderground v.1.13,2013-07-14 08:10:00,
2013-07-14 04:15:00,74.0,72.2,30.25,ENE,58,0.0,0.0,94,0.00,,,0.00,Wunderground v.1.13,2013-07-14 08:15:00,
2013-07-14 04:20:00,74.0,72.2,30.25,ENE,58,0.0,0.0,94,0.00,,,0.00,Wunderground v.1.13,2013-07-14 08:20:00,
2013-07-14 04:25:00,74.0,72.2,30.25,ENE,58,0.0,0.0,94,0.00,,,0.00,Wunderground v.1.13,2013-07-14 08:25:00,
2013-07-14 04:35:00,73.9,72.1,30.25,ENE,58,0.0,0.0,94,0.00,,,0.00,Wunderground v.1.13,2013-07-14 08:35:00,
2013-07-14 04:40:00,73.9,72.1,30.25,ENE,58,0.0,0.0,94,0.00,,,0.00,Wunderground v.1.13,2013-07-14 08:40:00,
2013-07-14 04:45:00,73.9,72.1,30.25,ENE,58,0.0,0.0,94,0.00,,,0.00,Wunderground v.1.13,2013-07-14 08:45:00,
2013-07-14 04:55:00,73.9,72.1,30.25,ENE,58,0.0,0.0,94,0.00,,,0.00,Wunderground v.1.13,2013-07-14 08:55:00,
2013-07-14 05:00:00,73.9,72.1,30.26,ENE,58,0.0,0.0,94,0.00,,,0.00,Wunderground v.1.13,2013-07-14 09:00:00,
2013-07-14 05:05:00,73.9,72.1,30.26,ENE,58,0.0,0.0,94,0.00,,,0.00,Wunderground v.1.13,2013-07-14 09:05:00,
2013-07-14 05:15:00,73.7,71.9,30.26,ENE,58,0.0,0.0,94,0.00,,,0.00,Wunderground v.1.13,2013-07-14 09:15:00,
2013-07-14 05:20:00,73.7,71.9,30.26,ENE,58,0.0,0.0,94,0.00,,,0.00,Wunderground v.1.13,2013-07-14 09:20:00,
2013-07-14 05:25:00,73.7,71.9,30.26,ENE,58,0.0,0.0,94,0.00,,,0.00,Wunderground v.1.13,2013-07-14 09:25:00,
2013-07-14 05:30:00,73.7,71.9,30.26,ENE,58,0.0,0.0,94,0.00,,,0.00,Wunderground v.1.13,2013-07-14 09:30:00,
2013-07-14 05:40:00,73.7,71.9,30.26,ENE,58,0.0,0.0,94,0.00,,,0.00,Wunderground v.1.13,2013-07-14 09:40:00,
2013-07-14 05:45:00,73.7,71.9,30.26,ENE,58,0.0,0.0,94,0.00,,,0.00,Wunderground v.1.13,2013-07-14 09:45:00,
2013-07-14 05:50:00,73.7,71.9,30.26,ENE,58,0.0,0.0,94,0.00,,,0.00,Wunderground v.1.13,2013-07-14 09:50:00,
2013-07-14 05:55:00,73.7,71.9,30.26,ENE,58,0.0,0.0,94,0.00,,,0.00,Wunderground v.1.13,2013-07-14 09:55:00,
2013-07-14 06:00:00,73.7,71.9,30.27,ENE,58,0.0,0.0,94,0.00,,,0.00,Wunderground v.1.13,2013-07-14 10:00:00,
2013-07-14 06:10:00,73.7,71.9,30.27,ENE,58,0.0,0.0,94,0.00,,,0.00,Wunderground v.1.13,2013-07-14 10:10:00,
2013-07-14 06:15:00,73.7,71.9,30.27,ENE,58,0.0,0.0,94,0.00,,,0.00,Wunderground v.1.13,2013-07-14 10:15:00,
2013-07-14 06:20:00,73.7,71.9,30.27,ENE,58,0.0,0.0,94,0.00,,,0.00,Wunderground v.1.13,2013-07-14 10:20:00,
2013-07-14 06:30:00,73.9,72.1,30.27,ENE,58,0.0,0.0,94,0.00,,,0.00,Wunderground v.1.13,2013-07-14 10:30:00,
2013-07-14 06:35:00,73.9,72.1,30.27,ENE,58,0.0,0.0,94,0.00,,,0.00,Wunderground v.1.13,2013-07-14 10:35:00,
2013-07-14 06:40:00,73.9,72.1,30.27,ENE,58,0.0,0.0,94,0.00,,,0.00,Wunderground v.1.13,2013-07-14 10:40:00,
2013-07-14 06:45:00,73.9,72.1,30.27,ENE,58,0.0,0.0,94,0.00,,,0.00,Wunderground v.1.13,2013-07-14 10:45:00,
2013-07-14 06:55:00,73.9,72.1,30.27,ENE,58,0.0,0.0,94,0.00,,,0.00,Wunderground v.1.13,2013-07-14 10:55:00,
2013-07-14 07:00:00,74.0,72.2,30.27,ENE,58,0.0,0.0,94,0.00,,,0.00,Wunderground v.1.13,2013-07-14 11:00:00,
2013-07-14 07:10:00,74.2,72.4,30.27,ENE,58,0.0,0.0,94,0.00,,,0.00,Wunderground v.1.13,2013-07-14 11:10:00,
2013-07-14 07:15:00,74.2,72.4,30.28,ENE,58,0.0,0.0,94,0.00,,,0.00,Wunderground v.1.13,2013-07-14 11:15:00,
2013-07-14 07:20:00,74.2,72.4,30.28,ENE,58,0.0,0.0,94,0.00,,,0.00,Wunderground v.1.13,2013-07-14 11:20:00,
2013-07-14 07:25:00,74.2,72.4,30.28,SSW,195,0.0,0.0,94,0.00,,,0.00,Wunderground v.1.13,2013-07-14 11:25:00,
2013-07-14 07:35:00,74.4,72.6,30.28,SSW,195,0.0,0.0,94,0.00,,,0.00,Wunderground v.1.13,2013-07-14 11:35:00,
2013-07-14 07:40:00,74.6,72.8,30.28,SSW,195,0.0,0.0,94,0.00,,,0.00,Wunderground v.1.13,2013-07-14 11:40:00,
2013-07-14 07:45:00,74.6,72.8,30.29,SSW,195,0.0,0.0,94,0.00,,,0.00,Wunderground v.1.13,2013-07-14 11:45:00,
2013-07-14 07:55:00,74.7,72.5,30.29,SSW,195,0.0,0.0,93,0.00,,,0.00,Wunderground v.1.13,2013-07-14 11:55:00,
2013-07-14 08:00:00,74.9,72.7,30.29,SSW,198,0.0,0.0,93,0.00,,,0.00,Wunderground v.1.13,2013-07-14 12:00:00,
2013-07-14 08:05:00,75.1,72.9,30.29,SSW,198,0.0,0.0,93,0.00,,,0.00,Wunderground v.1.13,2013-07-14 12:05:00,
2013-07-14 08:10:00,75.1,72.9,30.29,SSW,198,0.0,0.0,93,0.00,,,0.00,Wunderground v.1.13,2013-07-14 12:10:00,
2013-07-14 08:15:00,75.4,73.2,30.29,SSW,198,0.0,0.0,93,0.00,,,0.00,Wunderground v.1.13,2013-07-14 12:15:00,
2013-07-14 08:25:00,75.4,72.9,30.29,SW,217,0.0,0.0,92,0.00,,,0.00,Wunderground v.1.13,2013-07-14 12:25:00,
2013-07-14 08:30:00,75.6,73.1,30.29,SW,217,0.0,0.0,92,0.00,,,0.00,Wunderground v.1.13,2013-07-14 12:30:00,
2013-07-14 08:40:00,76.0,73.2,30.29,SSW,212,0.0,0.0,91,0.00,,,0.00,Wunderground v.1.13,2013-07-14 12:40:00,
2013-07-14 08:45:00,76.3,73.5,30.28,SSW,212,0.0,0.0,91,0.00,,,0.00,Wunderground v.1.13,2013-07-14 12:45:00,
2013-07-14 08:50:00,76.5,73.3,30.28,WSW,243,0.0,0.0,90,0.00,,,0.00,Wunderground v.1.13,2013-07-14 12:50:00,
2013-07-14 09:00:00,77.0,73.5,30.28,SW,217,0.0,0.0,89,0.00,,,0.00,Wunderground v.1.13,2013-07-14 13:00:00,
2013-07-14 09:05:00,77.4,73.6,30.28,SW,234,0.0,0.0,88,0.00,,,0.00,Wunderground v.1.13,2013-07-14 13:05:00,
2013-07-14 09:10:00,77.7,73.5,30.28,WSW,244,0.0,0.0,87,0.00,,,0.00,Wunderground v.1.13,2013-07-14 13:10:00,
2013-07-14 09:20:00,78.6,73.4,30.27,SW,226,0.0,1.0,84,0.00,,,0.00,Wunderground v.1.13,2013-07-14 13:20:00,
2013-07-14 09:25:00,78.8,73.2,30.27,WSW,250,0.0,0.0,83,0.00,,,0.00,Wunderground v.1.13,2013-07-14 13:25:00,
2013-07-14 09:30:00,79.2,73.6,30.27,SW,232,0.0,0.0,83,0.00,,,0.00,Wunderground v.1.13,2013-07-14 13:30:00,
2013-07-14 09:40:00,80.1,74.1,30.27,SW,232,0.0,0.0,82,0.00,,,0.00,Wunderground v.1.13,2013-07-14 13:40:00,
2013-07-14 09:45:00,80.1,73.4,30.27,NNW,337,0.0,1.0,80,0.00,,,0.00,Wunderground v.1.13,2013-07-14 13:45:00,
2013-07-14 09:55:00,80.1,73.0,30.27,SW,215,0.0,0.0,79,0.00,,,0.00,Wunderground v.1.13,2013-07-14 13:55:00,
2013-07-14 10:00:00,80.3,73.6,30.27,WSW,244,0.0,0.0,80,0.00,,,0.00,Wunderground v.1.13,2013-07-14 14:00:00,
2013-07-14 10:05:00,80.7,73.6,30.27,WSW,243,0.0,0.0,79,0.00,,,0.00,Wunderground v.1.13,2013-07-14 14:05:00,
2013-07-14 10:10:00,80.9,73.8,30.27,WSW,243,0.0,0.0,79,0.00,,,0.00,Wunderground v.1.13,2013-07-14 14:10:00,
2013-07-14 10:20:00,81.4,73.1,30.27,WSW,244,0.0,0.0,76,0.00,,,0.00,Wunderground v.1.13,2013-07-14 14:20:00,
2013-07-14 10:25:00,81.4,73.1,30.27,SSW,208,1.0,1.0,76,0.00,,,0.00,Wunderground v.1.13,2013-07-14 14:25:00,
2013-07-14 10:30:00,81.8,73.5,30.27,SSW,208,0.0,0.0,76,0.00,,,0.00,Wunderground v.1.13,2013-07-14 14:30:00,
2013-07-14 10:40:00,82.2,73.5,30.27,West,264,0.0,0.0,75,0.00,,,0.00,Wunderground v.1.13,2013-07-14 14:40:00,
2013-07-14 10:45:00,82.4,73.3,30.27,WSW,256,0.0,0.0,74,0.00,,,0.00,Wunderground v.1.13,2013-07-14 14:45:00,
2013-07-14 10:50:00,83.2,73.6,30.27,WSW,256,0.0,0.0,73,0.00,,,0.00,Wunderground v.1.13,2013-07-14 14:50:00,
2013-07-14 11:00:00,84.1,73.3,30.27,NNE,28,0.0,0.0,70,0.00,,,0.00,Wunderground v.1.13,2013-07-14 15:00:00,
2013-07-14 11:05:00,84.5,72.8,30.27,North,0,0.0,0.0,68,0.00,,,0.00,Wunderground v.1.13,2013-07-14 15:05:00,
2013-07-14 11:10:00,84.7,73.0,30.27,North,0,0.0,0.0,68,0.00,,,0.00,Wunderground v.1.13,2013-07-14 15:10:00,
2013-07-14 11:20:00,84.9,72.3,30.26,SW,227,0.0,0.0,66,0.00,,,0.00,Wunderground v.1.13,2013-07-14 15:20:00,
2013-07-14 11:30:00,85.3,71.7,30.26,NE,34,0.0,0.0,64,0.00,,,0.00,Wunderground v.1.13,2013-07-14 15:30:00,
2013-07-14 11:35:00,85.1,72.5,30.26,NNE,31,0.0,0.0,66,0.00,,,0.00,Wunderground v.1.13,2013-07-14 15:35:00,
2013-07-14 11:40:00,85.1,72.5,30.26,SW,227,0.0,5.0,66,0.00,,,0.00,Wunderground v.1.13,2013-07-14 15:40:00,
2013-07-14 11:45:00,84.9,72.3,30.26,WSW,253,1.0,1.0,66,0.00,,,0.00,Wunderground v.1.13,2013-07-14 15:45:00,
2013-07-14 11:55:00,85.3,71.7,30.26,North,4,0.0,0.0,64,0.00,,,0.00,Wunderground v.1.13,2013-07-14 15:55:00,
2013-07-14 12:00:00,85.9,71.8,30.26,West,268,0.0,0.0,63,0.00,,,0.00,Wunderground v.1.13,2013-07-14 16:00:00,
2013-07-14 12:10:00,87.0,70.9,30.26,NW,320,0.0,0.0,59,0.00,,,0.00,Wunderground v.1.13,2013-07-14 16:10:00,
2013-07-14 12:20:00,87.0,70.9,30.26,NW,320,0.0,0.0,59,0.00,,,0.00,Wunderground v.1.13,2013-07-14 16:20:00,
2013-07-14 12:25:00,86.5,70.5,30.26,West,261,1.0,2.0,59,0.00,,,0.00,Wunderground v.1.13,2013-07-14 16:25:00,
2013-07-14 12:30:00,86.1,70.6,30.25,West,261,1.0,1.0,60,0.00,,,0.00,Wunderground v.1.13,2013-07-14 16:30:00,
2013-07-14 12:40:00,87.2,71.1,30.25,SW,217,1.0,1.0,59,0.00,,,0.00,Wunderground v.1.13,2013-07-14 16:40:00,
2013-07-14 12:45:00,87.4,71.8,30.25,SW,217,0.0,1.0,60,0.00,,,0.00,Wunderground v.1.13,2013-07-14 16:45:00,
2013-07-14 12:55:00,87.6,70.5,30.25,WNW,298,1.0,1.0,57,0.00,,,0.00,Wunderground v.1.13,2013-07-14 16:55:00,
2013-07-14 13:00:00,88.0,70.9,30.24,NW,305,0.0,0.0,57,0.00,,,0.00,Wunderground v.1.13,2013-07-14 17:00:00,
2013-07-14 13:05:00,88.4,70.2,30.24,South,182,0.0,0.0,55,0.00,,,0.00,Wunderground v.1.13,2013-07-14 17:05:00,
2013-07-14 13:10:00,88.8,70.5,30.24,WSW,256,0.0,0.0,55,0.00,,,0.00,Wunderground v.1.13,2013-07-14 17:10:00,
2013-07-14 13:20:00,88.6,70.4,30.24,WSW,251,0.0,0.0,55,0.00,,,0.00,Wunderground v.1.13,2013-07-14 17:20:00,
2013-07-14 13:25:00,88.6,70.4,30.24,WSW,253,0.0,1.0,55,0.00,,,0.00,Wunderground v.1.13,2013-07-14 17:25:00,
2013-07-14 13:30:00,88.6,71.4,30.24,WSW,246,0.0,0.0,57,0.00,,,0.00,Wunderground v.1.13,2013-07-14 17:30:00,
2013-07-14 13:40:00,89.5,71.2,30.24,SSW,206,0.0,0.0,55,0.00,,,0.00,Wunderground v.1.13,2013-07-14 17:40:00,
2013-07-14 13:45:00,89.3,71.0,30.24,SSW,206,0.0,0.0,55,0.00,,,0.00,Wunderground v.1.13,2013-07-14 17:45:00,
2013-07-14 13:55:00,89.3,71.0,30.24,NNW,330,0.0,0.0,55,0.00,,,0.00,Wunderground v.1.13,2013-07-14 17:55:00,
2013-07-14 14:00:00,89.5,70.7,30.23,NNW,330,0.0,0.0,54,0.00,,,0.00,Wunderground v.1.13,2013-07-14 18:00:00,
2013-07-14 14:10:00,90.1,70.7,30.23,WSW,254,1.0,1.0,53,0.00,,,0.00,Wunderground v.1.13,2013-07-14 18:10:00,
2013-07-14 14:15:00,90.1,70.7,30.23,SW,216,1.0,5.0,53,0.00,,,0.00,Wunderground v.1.13,2013-07-14 18:15:00,
2013-07-14 14:20:00,89.7,70.8,30.23,WSW,246,1.0,1.0,54,0.00,,,0.00,Wunderground v.1.13,2013-07-14 18:20:00,
2013-07-14 14:30:00,90.1,71.8,30.23,WSW,246,0.0,0.0,55,0.00,,,0.00,Wunderground v.1.13,2013-07-14 18:30:00,
2013-07-14 14:35:00,90.3,70.3,30.23,WSW,246,0.0,0.0,52,0.00,,,0.00,Wunderground v.1.13,2013-07-14 18:35:00,
2013-07-14 14:40:00,90.3,71.4,30.23,WSW,246,0.0,0.0,54,0.00,,,0.00,Wunderground v.1.13,2013-07-14 18:40:00,
2013-07-14 14:45:00,90.3,71.4,30.22,WSW,246,0.0,0.0,54,0.00,,,0.00,Wunderground v.1.13,2013-07-14 18:45:00,
2013-07-14 14:55:00,90.1,71.2,30.22,WSW,246,0.0,0.0,54,0.00,,,0.00,Wunderground v.1.13,2013-07-14 18:55:00,
2013-07-14 15:00:00,89.7,71.4,30.22,WSW,246,0.0,0.0,55,0.00,,,0.00,Wunderground v.1.13,2013-07-14 19:00:00,
2013-07-14 15:10:00,89.0,72.3,30.22,WSW,246,0.0,0.0,58,0.00,,,0.00,Wunderground v.1.13,2013-07-14 19:10:00,
2013-07-14 15:15:00,89.3,70.5,30.22,WSW,246,0.0,0.0,54,0.00,,,0.00,Wunderground v.1.13,2013-07-14 19:15:00,
2013-07-14 15:20:00,89.5,71.7,30.22,WSW,246,0.0,0.0,56,0.00,,,0.00,Wunderground v.1.13,2013-07-14 19:20:00,
2013-07-14 15:25:00,89.7,70.8,30.22,WSW,246,0.0,0.0,54,0.00,,,0.00,Wunderground v.1.13,2013-07-14 19:25:00,
2013-07-14 15:35:00,90.3,71.4,30.21,West,280,0.0,0.0,54,0.00,,,0.00,Wunderground v.1.13,2013-07-14 19:35:00,
2013-07-14 15:40:00,90.5,71.6,30.21,West,278,0.0,0.0,54,0.00,,,0.00,Wunderground v.1.13,2013-07-14 19:40:00,
2013-07-14 15:50:00,91.4,71.9,30.21,West,278,0.0,0.0,53,0.00,,,0.00,Wunderground v.1.13,2013-07-14 19:50:00,
2013-07-14 15:55:00,91.6,72.0,30.21,WSW,239,0.0,0.0,53,0.00,,,0.00,Wunderground v.1.13,2013-07-14 19:55:00,
2013-07-14 16:00:00,91.2,71.7,30.20,WSW,239,0.0,0.0,53,0.00,,,0.00,Wunderground v.1.13,2013-07-14 20:00:00,
2013-07-14 16:10:00,91.6,71.5,30.20,SE,136,0.0,0.0,52,0.00,,,0.00,Wunderground v.1.13,2013-07-14 20:10:00,
2013-07-14 16:15:00,91.8,72.2,30.20,SW,224,0.0,0.0,53,0.00,,,0.00,Wunderground v.1.13,2013-07-14 20:15:00,
2013-07-14 16:25:00,91.6,70.9,30.20,SSW,213,0.0,0.0,51,0.00,,,0.00,Wunderground v.1.13,2013-07-14 20:25:00,
2013-07-14 16:30:00,90.7,71.2,30.20,SSW,213,0.0,0.0,53,0.00,,,0.00,Wunderground v.1.13,2013-07-14 20:30:00,
2013-07-14 16:35:00,90.3,71.4,30.20,SSW,213,0.0,0.0,54,0.00,,,0.00,Wunderground v.1.13,2013-07-14 20:35:00,
2013-07-14 16:45:00,90.1,72.8,30.19,SSW,213,0.0,0.0,57,0.00,,,0.00,Wunderground v.1.13,2013-07-14 20:45:00,
2013-07-14 16:50:00,90.3,71.4,30.19,SSW,213,0.0,0.0,54,0.00,,,0.00,Wunderground v.1.13,2013-07-14 20:50:00,
2013-07-14 16:55:00,90.5,71.0,30.19,SW,226,0.0,0.0,53,0.00,,,0.00,Wunderground v.1.13,2013-07-14 20:55:00,
2013-07-14 17:00:00,90.7,71.8,30.19,SW,226,0.0,0.0,54,0.00,,,0.00,Wunderground v.1.13,2013-07-14 21:00:00,
2013-07-14 17:10:00,90.7,71.8,30.19,SW,226,0.0,1.0,54,0.00,,,0.00,Wunderground v.1.13,2013-07-14 21:10:00,
2013-07-14 17:15:00,91.0,72.0,30.18,SW,226,0.0,0.0,54,0.00,,,0.00,Wunderground v.1.13,2013-07-14 21:15:00,
2013-07-14 17:25:00,91.4,73.0,30.18,SSW,199,0.0,0.0,55,0.00,,,0.00,Wunderground v.1.13,2013-07-14 21:25:00,
2013-07-14 17:30:00,91.4,72.4,30.18,SSW,199,0.0,1.0,54,0.00,,,0.00,Wunderground v.1.13,2013-07-14 21:30:00,
2013-07-14 17:35:00,91.2,71.7,30.18,SW,232,1.0,1.0,53,0.00,,,0.00,Wunderground v.1.13,2013-07-14 21:35:00,
2013-07-14 17:45:00,90.3,71.9,30.18,WSW,241,1.0,1.0,55,0.00,,,0.00,Wunderground v.1.13,2013-07-14 21:45:00,
2013-07-14 17:50:00,90.3,72.5,30.18,SSW,206,1.0,1.0,56,0.00,,,0.00,Wunderground v.1.13,2013-07-14 21:50:00,
2013-07-14 17:55:00,90.7,72.8,30.18,SSW,206,0.0,1.0,56,0.00,,,0.00,Wunderground v.1.13,2013-07-14 21:55:00,
2013-07-14 18:05:00,90.7,72.8,30.18,SSW,206,0.0,0.0,56,0.00,,,0.00,Wunderground v.1.13,2013-07-14 22:05:00,
2013-07-14 18:10:00,90.5,72.7,30.18,SSW,206,0.0,0.0,56,0.00,,,0.00,Wunderground v.1.13,2013-07-14 22:10:00,
2013-07-14 18:15:00,90.1,72.8,30.18,West,265,0.0,0.0,57,0.00,,,0.00,Wunderground v.1.13,2013-07-14 22:15:00,
2013-07-14 18:25:00,89.7,72.4,30.18,WSW,253,0.0,0.0,57,0.00,,,0.00,Wunderground v.1.13,2013-07-14 22:25:00,
2013-07-14 18:30:00,89.3,72.6,30.18,NNW,344,0.0,0.0,58,0.00,,,0.00,Wunderground v.1.13,2013-07-14 22:30:00,
2013-07-14 18:35:00,88.8,72.1,30.18,NNW,344,0.0,0.0,58,0.00,,,0.00,Wunderground v.1.13,2013-07-14 22:35:00,
2013-07-14 18:45:00,88.4,72.7,30.18,NNW,343,0.0,0.0,60,0.00,,,0.00,Wunderground v.1.13,2013-07-14 22:45:00,
2013-07-14 18:50:00,88.2,73.0,30.18,NNW,343,0.0,0.0,61,0.00,,,0.00,Wunderground v.1.13,2013-07-14 22:50:00,
2013-07-14 18:55:00,87.8,73.2,30.18,NW,312,0.0,2.0,62,0.00,,,0.00,Wunderground v.1.13,2013-07-14 22:55:00,
2013-07-14 19:05:00,87.0,72.4,30.18,West,272,0.0,0.0,62,0.00,,,0.00,Wunderground v.1.13,2013-07-14 23:05:00,
2013-07-14 19:10:00,87.0,73.3,30.18,West,272,0.0,0.0,64,0.00,,,0.00,Wunderground v.1.13,2013-07-14 23:10:00,
2013-07-14 19:15:00,87.0,72.9,30.18,West,272,0.0,0.0,63,0.00,,,0.00,Wunderground v.1.13,2013-07-14 23:15:00,
2013-07-14 19:25:00,86.7,73.5,30.18,West,272,0.0,0.0,65,0.00,,,0.00,Wunderground v.1.13,2013-07-14 23:25:00,
2013-07-14 19:30:00,86.5,73.3,30.18,West,272,0.0,0.0,65,0.00,,,0.00,Wunderground v.1.13,2013-07-14 23:30:00,
2013-07-14 19:40:00,86.3,73.1,30.18,West,272,0.0,0.0,65,0.00,,,0.00,Wunderground v.1.13,2013-07-14 23:40:00,
2013-07-14 19:45:00,86.3,73.6,30.18,West,272,0.0,0.0,66,0.00,,,0.00,Wunderground v.1.13,2013-07-14 23:45:00,
2013-07-14 19:55:00,85.9,73.2,30.18,West,272,0.0,0.0,66,0.00,,,0.00,Wunderground v.1.13,2013-07-14 23:55:00,
2013-07-14 20:00:00,85.9,73.2,30.18,West,272,0.0,0.0,66,0.00,,,0.00,Wunderground v.1.13,2013-07-15 00:00:00,
2013-07-14 20:05:00,85.7,73.0,30.18,West,272,0.0,0.0,66,0.00,,,0.00,Wunderground v.1.13,2013-07-15 00:05:00,
2013-07-14 20:15:00,85.3,73.1,30.18,West,272,0.0,0.0,67,0.00,,,0.00,Wunderground v.1.13,2013-07-15 00:15:00,
2013-07-14 20:20:00,85.1,73.3,30.18,West,272,0.0,0.0,68,0.00,,,0.00,Wunderground v.1.13,2013-07-15 00:20:00,
2013-07-14 20:25:00,84.9,73.2,30.18,West,272,0.0,0.0,68,0.00,,,0.00,Wunderground v.1.13,2013-07-15 00:25:00,
2013-07-14 20:35:00,84.3,73.0,30.18,West,272,0.0,0.0,69,0.00,,,0.00,Wunderground v.1.13,2013-07-15 00:35:00,
2013-07-14 20:45:00,83.8,72.5,30.18,West,272,0.0,0.0,69,0.00,,,0.00,Wunderground v.1.13,2013-07-15 00:45:00,
2013-07-14 20:50:00,83.4,72.6,30.18,West,272,0.0,0.0,70,0.00,,,0.00,Wunderground v.1.13,2013-07-15 00:50:00,
2013-07-14 21:00:00,82.8,72.0,30.18,West,272,0.0,0.0,70,0.00,,,0.00,Wunderground v.1.13,2013-07-15 01:00:00,
2013-07-14 21:05:00,82.6,71.8,30.18,West,272,0.0,0.0,70,0.00,,,0.00,Wunderground v.1.13,2013-07-15 01:05:00,
2013-07-14 21:10:00,82.4,72.0,30.18,West,272,0.0,0.0,71,0.00,,,0.00,Wunderground v.1.13,2013-07-15 01:10:00,
2013-07-14 21:20:00,82.0,71.7,30.18,West,272,0.0,0.0,71,0.00,,,0.00,Wunderground v.1.13,2013-07-15 01:20:00,
2013-07-14 21:25:00,81.8,71.1,30.18,West,272,0.0,0.0,70,0.00,,,0.00,Wunderground v.1.13,2013-07-15 01:25:00,
2013-07-14 21:30:00,81.6,70.9,30.19,West,272,0.0,0.0,70,0.00,,,0.00,Wunderground v.1.13,2013-07-15 01:30:00,
2013-07-14 21:40:00,81.4,70.7,30.19,West,272,0.0,0.0,70,0.00,,,0.00,Wunderground v.1.13,2013-07-15 01:40:00,
2013-07-14 21:45:00,81.4,71.1,30.20,West,272,0.0,0.0,71,0.00,,,0.00,Wunderground v.1.13,2013-07-15 01:45:00,
2013-07-14 21:55:00,81.1,70.8,30.20,West,272,0.0,0.0,71,0.00,,,0.00,Wunderground v.1.13,2013-07-15 01:55:00,
2013-07-14 22:00:00,81.1,70.8,30.20,West,272,0.0,0.0,71,0.00,,,0.00,Wunderground v.1.13,2013-07-15 02:00:00,
2013-07-14 22:05:00,81.1,70.8,30.20,West,272,0.0,0.0,71,0.00,,,0.00,Wunderground v.1.13,2013-07-15 02:05:00,
2013-07-14 22:10:00,80.9,71.0,30.20,West,272,0.0,0.0,72,0.00,,,0.00,Wunderground v.1.13,2013-07-15 02:10:00,
2013-07-14 22:20:00,80.7,71.2,30.20,West,272,0.0,0.0,73,0.00,,,0.00,Wunderground v.1.13,2013-07-15 02:20:00,
2013-07-14 22:25:00,80.5,71.0,30.20,West,272,0.0,0.0,73,0.00,,,0.00,Wunderground v.1.13,2013-07-15 02:25:00,
2013-07-14 22:30:00,80.5,71.4,30.19,West,272,0.0,0.0,74,0.00,,,0.00,Wunderground v.1.13,2013-07-15 02:30:00,
2013-07-14 22:40:00,80.3,71.3,30.19,West,272,0.0,0.0,74,0.00,,,0.00,Wunderground v.1.13,2013-07-15 02:40:00,
2013-07-14 22:45:00,80.1,71.1,30.19,West,272,0.0,0.0,74,0.00,,,0.00,Wunderground v.1.13,2013-07-15 02:45:00,
2013-07-14 22:50:00,80.1,71.1,30.19,West,272,0.0,0.0,74,0.00,,,0.00,Wunderground v.1.13,2013-07-15 02:50:00,
2013-07-14 22:55:00,80.1,71.1,30.19,West,272,0.0,0.0,74,0.00,,,0.00,Wunderground v.1.13,2013-07-15 02:55:00,
2013-07-14 23:00:00,80.1,71.1,30.19,West,272,0.0,0.0,74,0.00,,,0.00,Wunderground v.1.13,2013-07-15 03:00:00,
2013-07-14 23:10:00,79.9,70.9,30.19,West,272,0.0,0.0,74,0.00,,,0.00,Wunderground v.1.13,2013-07-15 03:10:00,
2013-07-14 23:15:00,79.9,71.3,30.19,West,272,0.0,0.0,75,0.00,,,0.00,Wunderground v.1.13,2013-07-15 03:15:00,
2013-07-14 23:20:00,79.8,71.2,30.19,West,272,0.0,0.0,75,0.00,,,0.00,Wunderground v.1.13,2013-07-15 03:20:00,
2013-07-14 23:30:00,79.4,71.6,30.19,West,272,0.0,0.0,77,0.00,,,0.00,Wunderground v.1.13,2013-07-15 03:30:00,
2013-07-14 23:35:00,79.2,71.7,30.19,West,272,0.0,0.0,78,0.00,,,0.00,Wunderground v.1.13,2013-07-15 03:35:00,
2013-07-14 23:40:00,79.0,71.9,30.19,West,272,0.0,0.0,79,0.00,,,0.00,Wunderground v.1.13,2013-07-15 03:40:00,
2013-07-14 23:50:00,78.5,72.2,30.19,West,272,0.0,0.0,81,0.00,,,0.00,Wunderground v.1.13,2013-07-15 03:50:00,
2013-07-14 23:55:00,78.5,72.2,30.19,West,272,0.0,0.0,81,0.00,,,0.00,Wunderground v.1.13,2013-07-15 03:55:00,